Time;durP1;ratioP1;P1;durP2;ratioP2;P2;SDS_P1;SDS_P2;PMS_P1;PMS_P2;Temp;Humidity;BMP_temperature;BMP_pressure;BME280_temperature;BME280_humidity;BME280_pressure;Samples;Min_cycle;Max_cycle;Signal;HPM_P1;HPM_P2
2020/12/21 00:01:42;;;;;;;13.50;12.13;;;12.80;63.90;;;;;;5011393;28;20444;-41
2020/12/21 00:04:07;;;;;;;14.30;11.60;;;13.00;63.90;;;;;;5011570;28;20918;-41
2020/12/21 00:06:33;;;;;;;13.10;11.53;;;12.90;63.30;;;;;;5011147;28;20475;-41
2020/12/21 00:08:59;;;;;;;12.23;10.30;;;12.90;63.00;;;;;;5011699;28;20225;-41
2020/12/21 00:11:39;;;;;;;12.40;11.13;;;12.90;63.00;;;;;;5011233;28;20714;-41
2020/12/21 00:14:06;;;;;;;13.60;12.10;;;12.90;63.30;;;;;;5009879;28;20224;-41
2020/12/21 00:16:44;;;;;;;12.83;10.80;;;12.80;63.50;;;;;;5011181;28;20503;-41
2020/12/21 00:19:11;;;;;;;14.77;11.17;;;12.80;63.70;;;;;;5011557;28;20437;-41
2020/12/21 00:21:39;;;;;;;11.63;10.20;;;13.00;63.30;;;;;;5011064;28;20421;-41
2020/12/21 00:24:05;;;;;;;13.53;10.70;;;13.00;62.80;;;;;;5011209;28;20837;-41
2020/12/21 00:26:32;;;;;;;12.93;10.53;;;13.10;62.70;;;;;;5010902;28;20461;-41
2020/12/21 00:28:58;;;;;;;13.10;10.83;;;13.20;62.60;;;;;;5011488;28;20440;-41
2020/12/21 00:31:33;;;;;;;12.17;10.90;;;13.20;62.40;;;;;;5010921;28;20523;-41
2020/12/21 00:34:01;;;;;;;12.40;10.93;;;13.20;62.40;;;;;;5010883;28;20519;-41
2020/12/21 00:36:27;;;;;;;12.63;11.33;;;13.20;62.30;;;;;;5010850;28;20484;-41
2020/12/21 00:38:55;;;;;;;12.97;10.47;;;13.20;62.50;;;;;;5010858;28;20436;-41
2020/12/21 00:41:22;;;;;;;11.17;10.17;;;13.10;62.30;;;;;;5009857;28;20248;-41
2020/12/21 00:43:48;;;;;;;13.73;11.03;;;13.10;63.30;;;;;;5011207;28;20427;-41
2020/12/21 00:46:21;;;;;;;11.57;10.37;;;13.10;62.30;;;;;;5010592;28;20548;-41
2020/12/21 00:48:47;;;;;;;11.60;10.23;;;13.20;62.40;;;;;;5004716;28;20466;-41
2020/12/21 00:51:14;;;;;;;11.30;10.17;;;13.30;62.00;;;;;;5010970;28;20480;-41
2020/12/21 00:53:40;;;;;;;12.90;10.10;;;13.40;61.70;;;;;;5010646;28;20443;-42
2020/12/21 00:56:06;;;;;;;11.53;10.23;;;13.20;61.70;;;;;;5011169;28;20551;-41
2020/12/21 00:58:37;;;;;;;14.33;11.10;;;13.30;61.80;;;;;;5010954;28;20198;-41
2020/12/21 01:01:11;;;;;;;13.60;11.63;;;13.30;61.50;;;;;;5002743;28;20984;-41
2020/12/21 01:03:37;;;;;;;13.70;10.73;;;13.30;61.60;;;;;;5007424;28;20498;-41
2020/12/21 01:06:04;;;;;;;12.07;10.70;;;13.30;61.30;;;;;;5009334;28;20433;-41
2020/12/21 01:08:29;;;;;;;12.40;11.13;;;13.30;61.10;;;;;;5010627;28;20194;-41
2020/12/21 01:10:55;;;;;;;14.90;11.83;;;13.30;61.00;;;;;;5011130;28;20791;-41
2020/12/21 01:13:20;;;;;;;12.17;10.77;;;13.30;60.80;;;;;;5010266;28;20324;-41
2020/12/21 01:15:46;;;;;;;14.63;12.40;;;13.30;60.60;;;;;;5011223;28;20229;-41
2020/12/21 01:18:12;;;;;;;12.47;11.10;;;13.40;60.40;;;;;;5010487;28;20194;-41
2020/12/21 01:20:39;;;;;;;12.83;11.30;;;13.30;60.40;;;;;;5010821;28;20204;-41
2020/12/21 01:23:05;;;;;;;13.20;11.63;;;13.20;60.70;;;;;;5010327;28;20244;-41
2020/12/21 01:25:30;;;;;;;11.30;10.20;;;13.20;60.70;;;;;;5010522;28;20437;-41
2020/12/21 01:27:56;;;;;;;11.90;10.53;;;13.20;60.70;;;;;;5010337;28;20197;-41
2020/12/21 01:30:22;;;;;;;13.90;10.50;;;13.20;60.70;;;;;;5010855;28;20636;-42
2020/12/21 01:32:47;;;;;;;12.13;10.80;;;13.20;60.60;;;;;;5008691;28;20190;-41
2020/12/21 01:35:13;;;;;;;12.47;10.67;;;13.20;60.70;;;;;;5010664;28;20190;-41
2020/12/21 01:37:39;;;;;;;12.60;10.23;;;13.20;60.70;;;;;;5010265;28;20192;-41
2020/12/21 01:40:05;;;;;;;17.43;10.97;;;13.20;60.80;;;;;;5010568;28;20194;-42
2020/12/21 01:42:31;;;;;;;12.60;9.53;;;13.20;61.00;;;;;;5010624;28;20208;-42
2020/12/21 01:44:57;;;;;;;15.93;11.27;;;13.10;61.20;;;;;;5011198;28;20826;-41
2020/12/21 01:47:23;;;;;;;13.97;12.20;;;13.10;61.00;;;;;;5012333;28;20276;-41
2020/12/21 01:49:49;;;;;;;14.83;11.20;;;13.10;61.20;;;;;;5004263;28;20276;-41
2020/12/21 01:52:17;;;;;;;12.57;11.17;;;13.00;61.60;;;;;;5013579;28;20193;-41
2020/12/21 01:54:47;;;;;;;13.73;12.27;;;12.90;62.00;;;;;;5013909;28;20515;-41
2020/12/21 01:57:13;;;;;;;13.13;11.37;;;12.90;61.90;;;;;;5013358;28;20490;-41
2020/12/21 01:59:39;;;;;;;13.97;11.90;;;13.00;61.90;;;;;;5012947;28;20753;-41
2020/12/21 02:02:05;;;;;;;11.60;10.47;;;13.00;61.60;;;;;;5013500;28;20550;-41
2020/12/21 02:04:30;;;;;;;12.33;11.03;;;12.90;61.40;;;;;;5013847;28;20437;-41
2020/12/21 02:07:00;;;;;;;12.97;11.60;;;12.80;62.00;;;;;;5013276;28;20205;-41
2020/12/21 02:09:25;;;;;;;13.57;11.23;;;12.80;62.20;;;;;;5014120;28;20316;-41
2020/12/21 02:11:51;;;;;;;13.33;11.70;;;12.80;62.20;;;;;;5013493;28;20520;-41
2020/12/21 02:14:17;;;;;;;11.83;10.63;;;12.90;61.90;;;;;;5013946;28;20698;-42
2020/12/21 02:16:42;;;;;;;13.30;10.40;;;13.00;61.70;;;;;;5013527;28;20585;-41
2020/12/21 02:19:08;;;;;;;11.50;10.37;;;13.10;61.50;;;;;;5013861;28;20202;-41
2020/12/21 02:21:33;;;;;;;12.30;9.97;;;13.10;61.10;;;;;;5013241;28;20190;-41
2020/12/21 02:23:59;;;;;;;14.00;11.27;;;13.10;60.80;;;;;;5013666;28;20194;-41
2020/12/21 02:26:24;;;;;;;11.97;10.77;;;13.10;60.80;;;;;;5011748;28;20186;-41
2020/12/21 02:28:52;;;;;;;10.90;9.80;;;13.10;60.70;;;;;;5013906;28;20240;-41
2020/12/21 02:31:18;;;;;;;14.13;11.40;;;13.10;60.50;;;;;;5012989;28;20186;-41
2020/12/21 02:33:45;;;;;;;13.70;11.77;;;13.00;60.60;;;;;;5013469;28;20837;-41
2020/12/21 02:36:10;;;;;;;11.57;10.40;;;13.00;60.50;;;;;;5012907;28;20233;-41
2020/12/21 02:38:36;;;;;;;12.13;10.53;;;12.90;60.10;;;;;;5013651;28;20610;-41
2020/12/21 02:41:02;;;;;;;11.30;9.80;;;12.90;60.10;;;;;;5013257;28;20198;-41
2020/12/21 02:43:27;;;;;;;14.77;11.43;;;12.90;60.10;;;;;;5012696;28;20564;-42
2020/12/21 02:45:53;;;;;;;11.90;10.70;;;12.70;60.00;;;;;;5013273;28;20193;-41
2020/12/21 02:48:18;;;;;;;12.10;10.70;;;12.50;60.30;;;;;;5009011;28;20667;-41
2020/12/21 02:50:44;;;;;;;10.70;9.70;;;12.30;61.70;;;;;;5010549;28;20190;-41
2020/12/21 02:53:11;;;;;;;12.37;11.07;;;12.10;61.80;;;;;;5010907;28;20229;-41
2020/12/21 02:55:37;;;;;;;12.03;10.60;;;12.00;61.90;;;;;;5012955;28;20563;-41
2020/12/21 02:58:03;;;;;;;12.43;11.13;;;12.20;62.20;;;;;;5012649;28;20995;-41
2020/12/21 03:00:28;;;;;;;14.53;10.67;;;12.20;61.60;;;;;;5012885;28;20226;-41
2020/12/21 03:02:54;;;;;;;12.47;11.27;;;12.10;61.50;;;;;;5012369;28;20532;-41
2020/12/21 03:05:19;;;;;;;11.93;10.73;;;12.10;61.20;;;;;;5012791;28;20234;-41
2020/12/21 03:07:45;;;;;;;14.47;11.17;;;12.00;61.10;;;;;;5012415;28;20251;-41
2020/12/21 03:10:10;;;;;;;11.87;10.67;;;11.90;61.70;;;;;;5012762;28;20206;-42
2020/12/21 03:12:36;;;;;;;12.63;11.37;;;11.80;62.00;;;;;;5012398;28;20276;-41
2020/12/21 03:15:02;;;;;;;13.00;11.70;;;11.70;62.00;;;;;;5012252;28;20201;-41
2020/12/21 03:17:27;;;;;;;12.60;11.30;;;11.70;62.00;;;;;;5012122;28;20280;-41
2020/12/21 03:19:53;;;;;;;16.97;12.13;;;11.70;61.90;;;;;;5010776;28;20620;-41
2020/12/21 03:22:18;;;;;;;12.77;11.53;;;11.30;62.90;;;;;;5012483;28;20194;-43
2020/12/21 03:24:44;;;;;;;13.13;11.23;;;11.10;63.90;;;;;;5012540;28;20186;-41
2020/12/21 03:27:09;;;;;;;12.27;10.90;;;11.00;64.60;;;;;;5012189;28;20190;-41
2020/12/21 03:29:35;;;;;;;11.63;10.43;;;10.90;65.00;;;;;;5012286;28;20222;-41
2020/12/21 03:32:00;;;;;;;13.63;11.50;;;11.00;65.00;;;;;;5011994;28;20290;-41
2020/12/21 03:34:26;;;;;;;14.50;11.87;;;10.80;65.10;;;;;;5012075;28;20289;-41
2020/12/21 03:36:52;;;;;;;12.33;10.87;;;10.90;65.60;;;;;;5011560;28;20234;-41
2020/12/21 03:39:17;;;;;;;14.57;12.30;;;10.90;64.90;;;;;;5012617;28;20197;-41
2020/12/21 03:41:43;;;;;;;12.60;11.37;;;11.10;64.70;;;;;;5011845;28;20186;-41
2020/12/21 03:44:08;;;;;;;14.33;11.27;;;11.20;64.10;;;;;;5011869;28;20197;-41
2020/12/21 03:46:34;;;;;;;12.87;11.57;;;11.10;64.30;;;;;;5009792;28;20650;-41
2020/12/21 03:48:59;;;;;;;14.40;10.30;;;11.20;64.30;;;;;;5007133;28;20605;-41
2020/12/21 03:51:25;;;;;;;12.23;11.03;;;11.30;63.80;;;;;;5011572;28;20193;-41
2020/12/21 03:53:50;;;;;;;13.80;12.40;;;11.40;63.80;;;;;;5011795;28;20225;-41
2020/12/21 03:56:16;;;;;;;15.10;11.17;;;11.40;63.10;;;;;;5011320;28;20233;-41
2020/12/21 03:58:42;;;;;;;12.20;11.00;;;11.30;63.20;;;;;;5011928;28;20201;-41
2020/12/21 04:01:08;;;;;;;21.07;11.40;;;11.20;63.40;;;;;;5011649;28;20233;-41
2020/12/21 04:03:33;;;;;;;11.20;9.83;;;11.30;63.40;;;;;;5011591;28;20456;-42
2020/12/21 04:05:59;;;;;;;11.47;10.37;;;11.40;63.30;;;;;;5012125;28;20704;-41
2020/12/21 04:08:24;;;;;;;11.57;10.10;;;11.40;63.10;;;;;;5010632;28;20878;-41
2020/12/21 04:10:50;;;;;;;10.50;9.47;;;11.20;63.50;;;;;;5012018;28;20248;-41
2020/12/21 04:13:17;;;;;;;11.80;9.97;;;11.20;64.00;;;;;;5009524;28;20277;-41
2020/12/21 04:15:43;;;;;;;13.27;11.40;;;11.20;63.80;;;;;;5011657;28;20206;-41
2020/12/21 04:18:08;;;;;;;11.57;9.73;;;11.00;64.00;;;;;;5010922;28;20433;-41
2020/12/21 04:20:34;;;;;;;11.90;10.33;;;11.00;64.40;;;;;;5011660;28;20239;-41
2020/12/21 04:23:02;;;;;;;10.77;9.67;;;11.00;64.30;;;;;;5011093;28;20567;-41
2020/12/21 04:25:28;;;;;;;10.70;9.20;;;11.10;64.00;;;;;;5011403;28;20186;-41
2020/12/21 04:27:53;;;;;;;10.73;9.63;;;11.20;63.50;;;;;;5010845;28;20478;-41
2020/12/21 04:30:19;;;;;;;11.70;10.30;;;11.20;63.50;;;;;;5011701;28;20429;-41
2020/12/21 04:32:45;;;;;;;11.73;10.50;;;11.10;63.20;;;;;;5010916;28;20194;-41
2020/12/21 04:35:10;;;;;;;11.10;9.70;;;11.10;63.10;;;;;;5010910;28;20197;-41
2020/12/21 04:37:36;;;;;;;14.00;10.87;;;11.00;63.50;;;;;;5011028;28;20593;-41
2020/12/21 04:40:02;;;;;;;15.97;9.70;;;10.90;63.40;;;;;;5009870;28;20197;-41
2020/12/21 04:42:28;;;;;;;13.93;10.20;;;10.60;64.50;;;;;;5010902;28;20190;-41
2020/12/21 04:44:53;;;;;;;12.50;10.70;;;10.60;64.90;;;;;;5011014;28;20428;-41
2020/12/21 04:47:19;;;;;;;12.40;10.00;;;10.70;64.50;;;;;;5009207;28;20194;-41
2020/12/21 04:49:46;;;;;;;11.17;10.00;;;10.70;64.60;;;;;;5005145;28;20225;-41
2020/12/21 04:52:13;;;;;;;9.50;8.53;;;10.80;64.10;;;;;;5010830;28;20433;-41
2020/12/21 04:54:40;;;;;;;10.93;9.57;;;10.80;63.70;;;;;;5010901;28;20433;-41
2020/12/21 04:57:06;;;;;;;15.67;9.37;;;10.80;63.20;;;;;;5010456;28;20484;-41
2020/12/21 04:59:31;;;;;;;12.13;8.80;;;10.70;63.80;;;;;;5011147;28;20437;-41
2020/12/21 05:01:57;;;;;;;10.40;9.40;;;10.50;64.70;;;;;;5010601;28;20795;-41
2020/12/21 05:04:24;;;;;;;8.63;7.83;;;10.30;65.30;;;;;;5010935;28;20198;-41
2020/12/21 05:06:51;;;;;;;10.17;8.87;;;10.20;65.80;;;;;;5008893;28;20202;-41
2020/12/21 05:09:20;;;;;;;13.97;9.57;;;10.00;66.10;;;;;;5011286;28;20441;-41
2020/12/21 05:11:54;;;;;;;12.63;9.63;;;10.00;67.20;;;;;;5010539;28;20879;-41
2020/12/21 05:14:30;;;;;;;11.00;9.20;;;9.90;68.40;;;;;;5010791;28;20432;-41
2020/12/21 05:16:56;;;;;;;11.50;9.03;;;10.00;67.70;;;;;;5010122;28;20549;-41
2020/12/21 05:19:22;;;;;;;18.00;11.27;;;10.20;67.60;;;;;;5011123;28;20425;-41
2020/12/21 05:21:54;;;;;;;14.03;9.20;;;10.00;66.70;;;;;;5014474;28;20699;-41
2020/12/21 05:24:22;;;;;;;10.73;9.57;;;10.10;67.80;;;;;;5014549;28;20562;-41
2020/12/21 05:26:48;;;;;;;15.80;10.40;;;10.40;67.20;;;;;;5014296;28;20436;-41
2020/12/21 05:29:26;;;;;;;11.90;10.30;;;10.60;66.40;;;;;;5014696;28;20833;-42
2020/12/21 05:31:52;;;;;;;10.23;9.23;;;10.60;65.00;;;;;;5014033;28;20200;-41
2020/12/21 05:34:28;;;;;;;9.80;8.73;;;10.60;65.40;;;;;;5012843;28;20429;-41
2020/12/21 05:36:53;;;;;;;12.73;8.93;;;10.60;65.50;;;;;;5014102;28;20589;-41
2020/12/21 05:39:20;;;;;;;11.07;9.97;;;10.50;65.50;;;;;;5014892;28;20458;-41
2020/12/21 05:41:46;;;;;;;10.87;9.77;;;10.40;65.80;;;;;;5014134;28;20576;-41
2020/12/21 05:44:11;;;;;;;10.53;8.73;;;10.30;66.50;;;;;;5013976;28;20432;-41
2020/12/21 05:46:37;;;;;;;11.27;10.07;;;10.30;66.50;;;;;;5013936;28;20697;-41
2020/12/21 05:49:03;;;;;;;11.53;10.27;;;10.30;66.10;;;;;;5008839;28;20253;-41
2020/12/21 05:51:31;;;;;;;11.80;10.30;;;10.20;66.70;;;;;;5013858;28;20970;-41
2020/12/21 05:54:01;;;;;;;11.67;9.80;;;10.20;66.10;;;;;;5013869;28;20436;-41
2020/12/21 05:56:29;;;;;;;11.73;10.50;;;10.30;66.20;;;;;;5013739;28;20480;-41
2020/12/21 05:58:55;;;;;;;12.10;10.40;;;10.60;65.60;;;;;;5014277;28;20432;-41
2020/12/21 06:01:22;;;;;;;15.20;10.83;;;10.60;65.20;;;;;;5012002;28;20433;-41
2020/12/21 06:03:52;;;;;;;16.07;11.80;;;10.60;64.90;;;;;;5013754;28;20451;-41
2020/12/21 06:06:22;;;;;;;13.20;10.63;;;10.70;65.10;;;;;;5013617;28;20974;-41
2020/12/21 06:08:52;;;;;;;15.10;11.60;;;10.70;64.40;;;;;;5014073;28;20441;-41
2020/12/21 06:11:23;;;;;;;14.80;11.70;;;10.70;64.50;;;;;;5013509;28;20491;-41
2020/12/21 06:13:49;;;;;;;12.70;11.40;;;10.70;64.60;;;;;;5013702;28;20795;-41
2020/12/21 06:16:16;;;;;;;11.77;10.47;;;10.70;65.10;;;;;;5013420;28;20491;-41
2020/12/21 06:18:42;;;;;;;10.60;9.30;;;10.50;64.60;;;;;;5014114;28;20248;-41
2020/12/21 06:21:08;;;;;;;12.90;11.03;;;10.50;64.90;;;;;;5013516;28;20421;-41
2020/12/21 06:23:37;;;;;;;12.63;10.97;;;10.50;65.10;;;;;;5013036;28;20530;-41
2020/12/21 06:26:15;;;;;;;10.43;9.10;;;10.50;65.00;;;;;;5012102;28;20518;-41
2020/12/21 06:28:41;;;;;;;11.80;9.27;;;10.40;65.10;;;;;;5014021;28;20436;-41
2020/12/21 06:31:18;;;;;;;10.47;9.47;;;10.30;65.60;;;;;;5012845;28;20544;-41
2020/12/21 06:33:45;;;;;;;10.50;9.30;;;10.30;65.50;;;;;;5013426;28;20194;-41
2020/12/21 06:36:11;;;;;;;10.50;9.30;;;10.30;65.40;;;;;;5012740;28;20794;-41
2020/12/21 06:38:45;;;;;;;10.30;9.13;;;10.30;65.70;;;;;;5013294;28;20428;-41
2020/12/21 06:41:32;;;;;;;10.30;9.07;;;10.20;66.20;;;;;;5012928;28;20461;-41
2020/12/21 06:44:00;;;;;;;9.93;8.50;;;10.10;66.50;;;;;;5012640;28;20453;-41
2020/12/21 06:46:27;;;;;;;9.77;8.77;;;10.30;66.40;;;;;;5012966;28;20520;-41
2020/12/21 06:49:13;;;;;;;10.70;9.57;;;10.40;65.60;;;;;;5007515;28;20858;-41
2020/12/21 06:51:41;;;;;;;10.30;9.20;;;10.30;64.80;;;;;;5011871;28;20465;-41
2020/12/21 06:54:09;;;;;;;9.80;8.90;;;10.20;65.80;;;;;;5010154;28;20456;-41
2020/12/21 06:56:35;;;;;;;8.70;7.90;;;10.20;65.40;;;;;;5011145;28;20579;-41
2020/12/21 06:59:01;;;;;;;9.73;8.77;;;10.20;65.10;;;;;;5012117;28;20524;-41
2020/12/21 07:01:28;;;;;;;10.80;9.70;;;10.30;65.00;;;;;;5011786;28;20255;-41
2020/12/21 07:03:54;;;;;;;11.73;9.53;;;10.30;64.00;;;;;;5011520;28;20198;-41
2020/12/21 07:06:20;;;;;;;11.57;10.17;;;10.30;64.30;;;;;;5011701;28;20522;-41
2020/12/21 07:08:49;;;;;;;12.40;10.30;;;9.60;67.10;;;;;;5012069;28;20457;-41
2020/12/21 07:11:20;;;;;;;13.40;11.03;;;9.40;69.10;;;;;;5011349;28;20440;-41
2020/12/21 07:13:47;;;;;;;12.27;10.73;;;9.10;70.10;;;;;;5011366;28;20469;-41
2020/12/21 07:16:15;;;;;;;14.23;10.77;;;9.00;70.40;;;;;;5011281;28;20503;-41
2020/12/21 07:18:41;;;;;;;13.40;11.27;;;8.90;70.90;;;;;;5011772;28;20425;-41
2020/12/21 07:21:08;;;;;;;13.00;10.77;;;8.80;71.20;;;;;;5010200;28;20425;-41
2020/12/21 07:23:34;;;;;;;12.87;10.10;;;8.90;72.20;;;;;;5011119;28;20268;-41
2020/12/21 07:26:00;;;;;;;14.47;11.17;;;9.00;72.00;;;;;;5011893;28;20482;-41
2020/12/21 07:28:27;;;;;;;11.93;10.50;;;9.00;70.90;;;;;;5011232;28;20445;-41
2020/12/21 07:30:52;;;;;;;11.40;10.07;;;8.90;71.10;;;;;;5011675;28;20229;-41
2020/12/21 07:33:18;;;;;;;12.53;10.83;;;9.10;71.40;;;;;;5011006;28;20425;-41
2020/12/21 07:35:54;;;;;;;10.87;9.73;;;9.50;70.50;;;;;;5011649;28;20217;-41
2020/12/21 07:38:22;;;;;;;12.60;10.47;;;9.70;68.20;;;;;;5011228;28;20194;-41
2020/12/21 07:40:48;;;;;;;13.70;10.73;;;9.70;67.90;;;;;;5011719;28;20433;-41
2020/12/21 07:43:29;;;;;;;13.20;9.60;;;9.50;68.40;;;;;;5009800;28;20444;-41
2020/12/21 07:46:08;;;;;;;12.03;9.90;;;9.40;68.70;;;;;;5010586;28;20436;-41
2020/12/21 07:48:35;;;;;;;9.93;8.97;;;9.30;69.50;;;;;;4985506;28;573968;-41
2020/12/21 07:51:03;;;;;;;11.40;10.10;;;9.10;70.40;;;;;;5011978;28;20205;-41
2020/12/21 07:53:40;;;;;;;11.53;9.60;;;9.10;70.70;;;;;;5011301;28;20437;-41
2020/12/21 07:56:06;;;;;;;10.70;9.60;;;9.00;70.70;;;;;;5011759;28;20488;-41
2020/12/21 07:58:35;;;;;;;10.13;9.13;;;9.00;71.50;;;;;;5011660;28;20802;-41
2020/12/21 08:01:01;;;;;;;11.67;9.27;;;8.90;71.90;;;;;;5012272;28;20436;-41
2020/12/21 08:03:29;;;;;;;10.17;9.17;;;9.00;71.90;;;;;;5010904;28;20429;-41
2020/12/21 08:06:24;;;;;;;12.50;8.73;;;9.10;71.70;;;;;;5012000;28;20198;-41
2020/12/21 08:08:50;;;;;;;8.77;7.87;;;9.00;72.30;;;;;;5006994;28;20441;-41
2020/12/21 08:11:18;;;;;;;10.00;8.13;;;8.90;72.00;;;;;;5011231;28;20453;-41
2020/12/21 08:13:51;;;;;;;9.07;8.17;;;9.00;72.30;;;;;;5009543;28;20437;-41
2020/12/21 08:16:24;;;;;;;10.07;9.03;;;9.10;72.10;;;;;;5011302;28;20859;-41
2020/12/21 08:18:53;;;;;;;12.00;8.93;;;9.20;71.60;;;;;;5011837;28;20437;-41
2020/12/21 08:21:25;;;;;;;11.27;8.67;;;9.40;71.30;;;;;;5011226;28;20428;-41
2020/12/21 08:23:58;;;;;;;10.80;8.47;;;9.20;71.10;;;;;;5011360;28;20584;-41
2020/12/21 08:26:25;;;;;;;10.10;8.80;;;9.30;71.10;;;;;;5010759;28;20913;-41
2020/12/21 08:28:51;;;;;;;10.50;9.20;;;9.40;70.80;;;;;;5011667;28;20429;-41
2020/12/21 08:31:22;;;;;;;10.77;8.60;;;9.70;69.70;;;;;;5010958;28;20440;-41
2020/12/21 08:34:04;;;;;;;10.20;8.43;;;9.80;69.10;;;;;;5011148;28;20486;-41
2020/12/21 08:36:39;;;;;;;10.33;8.70;;;10.00;67.30;;;;;;5010797;28;20499;-41
2020/12/21 08:39:08;;;;;;;9.43;8.27;;;10.00;66.70;;;;;;5011886;28;20436;-41
2020/12/21 08:41:35;;;;;;;9.63;8.27;;;9.90;68.40;;;;;;5009177;28;20431;-41
2020/12/21 08:44:01;;;;;;;8.60;7.73;;;10.00;67.40;;;;;;5010747;28;20451;-41
2020/12/21 08:46:26;;;;;;;9.20;7.93;;;10.00;67.60;;;;;;5010862;28;20441;-41
2020/12/21 08:48:52;;;;;;;10.67;9.10;;;10.30;67.20;;;;;;5009347;28;20241;-41
2020/12/21 08:51:21;;;;;;;9.27;8.03;;;10.30;66.60;;;;;;5010923;28;20579;-41
2020/12/21 08:53:46;;;;;;;9.43;8.30;;;10.40;66.60;;;;;;5010803;28;20198;-41
2020/12/21 08:56:13;;;;;;;9.23;8.30;;;10.70;66.30;;;;;;5010633;28;20835;-41
2020/12/21 08:58:39;;;;;;;9.07;8.17;;;10.80;65.10;;;;;;5011089;28;20676;-41
2020/12/21 09:01:06;;;;;;;10.60;9.10;;;10.80;65.10;;;;;;5010938;28;20425;-41
2020/12/21 09:03:31;;;;;;;9.67;8.67;;;10.80;65.10;;;;;;5010479;28;20428;-41
2020/12/21 09:05:57;;;;;;;9.23;8.33;;;10.90;64.80;;;;;;5010542;28;20921;-41
2020/12/21 09:08:23;;;;;;;10.30;8.83;;;10.90;64.90;;;;;;5009734;28;20300;-41
2020/12/21 09:10:49;;;;;;;10.30;9.27;;;11.00;65.70;;;;;;5010941;28;20619;-41
2020/12/21 09:13:14;;;;;;;10.47;9.20;;;11.00;64.40;;;;;;5010131;28;20556;-41
2020/12/21 09:15:40;;;;;;;10.13;9.00;;;11.20;64.20;;;;;;5010875;28;20830;-41
2020/12/21 09:18:06;;;;;;;8.73;7.83;;;11.20;63.60;;;;;;5010820;28;20217;-41
2020/12/21 09:20:31;;;;;;;9.50;7.90;;;11.20;63.20;;;;;;5011253;28;20676;-41
2020/12/21 09:22:57;;;;;;;8.20;7.40;;;11.00;63.80;;;;;;5010025;28;20543;-41
2020/12/21 09:25:22;;;;;;;9.80;8.20;;;11.10;64.10;;;;;;5010994;28;20190;-41
2020/12/21 09:27:48;;;;;;;10.20;8.20;;;11.10;63.80;;;;;;5010782;28;20197;-41
2020/12/21 09:30:14;;;;;;;9.07;8.17;;;11.30;63.70;;;;;;5011034;28;20553;-41
2020/12/21 09:32:39;;;;;;;9.20;8.20;;;11.20;63.50;;;;;;5009000;28;20241;-41
2020/12/21 09:35:05;;;;;;;9.40;7.83;;;11.10;64.00;;;;;;5010140;28;20222;-41
2020/12/21 09:37:31;;;;;;;8.63;7.70;;;11.20;64.00;;;;;;5010143;28;20233;-41
2020/12/21 09:39:56;;;;;;;8.77;7.87;;;11.00;64.40;;;;;;5010856;28;20198;-41
2020/12/21 09:42:22;;;;;;;8.73;7.90;;;10.90;64.80;;;;;;5010088;28;20193;-41
2020/12/21 09:44:50;;;;;;;8.37;6.97;;;11.00;65.10;;;;;;5010566;28;20190;-42
2020/12/21 09:47:15;;;;;;;7.23;6.50;;;10.80;64.90;;;;;;5010021;28;20190;-42
2020/12/21 09:49:41;;;;;;;8.27;7.47;;;10.90;65.10;;;;;;4999717;28;20770;-41
2020/12/21 09:52:07;;;;;;;8.37;7.53;;;11.00;64.90;;;;;;5010013;28;20277;-41
2020/12/21 09:54:32;;;;;;;8.70;7.80;;;11.00;65.10;;;;;;5010425;28;20190;-41
2020/12/21 09:56:58;;;;;;;8.03;7.07;;;11.20;64.80;;;;;;5010111;28;20484;-41
2020/12/21 09:59:23;;;;;;;9.10;7.70;;;11.30;63.90;;;;;;5009515;28;20573;-41
2020/12/21 10:01:50;;;;;;;8.37;7.50;;;11.30;64.20;;;;;;5009569;28;20190;-41
2020/12/21 10:04:15;;;;;;;8.53;7.13;;;11.20;64.10;;;;;;5010269;28;20198;-41
2020/12/21 10:06:47;;;;;;;9.30;7.87;;;11.20;64.70;;;;;;5011778;28;20432;-41
2020/12/21 10:09:13;;;;;;;8.30;7.50;;;11.30;64.60;;;;;;5014107;28;20573;-41
2020/12/21 10:11:38;;;;;;;9.20;8.27;;;11.20;65.00;;;;;;5013675;28;20428;-41
2020/12/21 10:14:04;;;;;;;10.03;8.60;;;11.00;65.80;;;;;;5013811;28;20708;-41
2020/12/21 10:16:29;;;;;;;8.40;7.27;;;11.30;65.40;;;;;;5013135;28;20587;-42
2020/12/21 10:18:55;;;;;;;8.63;7.73;;;11.50;65.00;;;;;;5014146;28;20202;-41
2020/12/21 10:21:21;;;;;;;8.47;7.67;;;11.60;64.00;;;;;;5013473;28;20304;-41
2020/12/21 10:23:46;;;;;;;9.20;8.30;;;11.60;64.20;;;;;;5013769;28;20213;-41
2020/12/21 10:26:12;;;;;;;8.90;8.00;;;11.70;64.00;;;;;;5011576;28;20945;-41
2020/12/21 10:28:38;;;;;;;9.10;8.20;;;11.70;63.70;;;;;;5013832;28;20281;-41
2020/12/21 10:31:03;;;;;;;9.03;7.87;;;11.70;63.80;;;;;;5013751;28;20190;-41
2020/12/21 10:33:29;;;;;;;11.50;8.13;;;11.40;64.40;;;;;;5012975;28;20674;-41
2020/12/21 10:35:54;;;;;;;9.30;8.13;;;11.40;65.00;;;;;;5013228;28;20230;-41
2020/12/21 10:38:20;;;;;;;8.50;7.10;;;11.50;64.80;;;;;;5013239;28;20194;-41
2020/12/21 10:40:46;;;;;;;8.53;7.67;;;11.70;64.60;;;;;;5013427;28;20288;-41
2020/12/21 10:43:11;;;;;;;9.07;7.20;;;11.80;63.80;;;;;;5012732;28;20284;-42
2020/12/21 10:45:38;;;;;;;8.37;7.40;;;11.80;63.50;;;;;;5013235;28;20200;-41
2020/12/21 10:48:04;;;;;;;8.80;7.90;;;11.90;63.40;;;;;;5007848;28;20239;-41
2020/12/21 10:50:30;;;;;;;8.80;7.60;;;12.00;62.80;;;;;;5013246;28;20488;-41
2020/12/21 10:52:55;;;;;;;8.90;7.37;;;12.20;62.40;;;;;;5010621;28;20429;-41
2020/12/21 10:55:21;;;;;;;8.60;7.57;;;12.20;61.80;;;;;;5013314;28;20198;-41
2020/12/21 10:57:47;;;;;;;7.97;7.17;;;12.30;62.00;;;;;;5012754;28;20309;-41
2020/12/21 11:00:12;;;;;;;8.07;7.27;;;12.30;62.00;;;;;;5013115;28;20202;-41
2020/12/21 11:02:38;;;;;;;7.23;6.50;;;12.40;61.70;;;;;;5011948;28;20193;-41
2020/12/21 11:05:04;;;;;;;8.53;7.23;;;12.60;61.00;;;;;;5013022;28;20658;-41
2020/12/21 11:07:31;;;;;;;10.43;8.23;;;12.40;60.80;;;;;;5012431;28;20209;-41
2020/12/21 11:09:56;;;;;;;9.03;8.10;;;12.30;61.20;;;;;;5012847;28;20601;-41
2020/12/21 11:12:23;;;;;;;7.70;6.97;;;12.40;61.10;;;;;;5012108;28;20453;-42
2020/12/21 11:14:49;;;;;;;9.60;7.77;;;12.50;60.90;;;;;;5013147;28;20204;-41
2020/12/21 11:17:14;;;;;;;9.50;8.50;;;12.50;60.80;;;;;;5011428;28;21006;-41
2020/12/21 11:19:40;;;;;;;10.33;8.07;;;12.60;60.70;;;;;;5010731;28;20417;-41
2020/12/21 11:22:05;;;;;;;13.50;8.60;;;12.80;60.70;;;;;;5012321;28;20206;-41
2020/12/21 11:24:31;;;;;;;10.40;8.50;;;12.90;60.70;;;;;;5012582;28;20201;-41
2020/12/21 11:26:58;;;;;;;11.13;7.43;;;13.00;60.30;;;;;;5011967;28;20221;-41
2020/12/21 11:29:24;;;;;;;7.47;6.77;;;13.10;59.80;;;;;;5012538;28;20248;-41
2020/12/21 11:31:49;;;;;;;6.93;6.33;;;13.00;59.30;;;;;;5012005;28;20425;-41
2020/12/21 11:34:15;;;;;;;7.40;6.70;;;13.10;59.30;;;;;;5012052;28;20604;-41
2020/12/21 11:36:44;;;;;;;7.03;5.50;;;13.10;59.40;;;;;;5012041;28;20233;-41
2020/12/21 11:39:10;;;;;;;10.43;6.40;;;13.20;59.30;;;;;;5012408;28;20293;-41
2020/12/21 11:41:36;;;;;;;9.10;6.93;;;13.20;59.10;;;;;;5011667;28;20524;-41
2020/12/21 11:44:02;;;;;;;6.27;5.67;;;13.20;59.00;;;;;;5012003;28;20531;-41
2020/12/21 11:46:32;;;;;;;6.77;6.10;;;13.20;59.20;;;;;;5010072;28;21006;-41
2020/12/21 11:48:58;;;;;;;9.53;5.80;;;13.20;58.70;;;;;;5005718;28;20473;-41
2020/12/21 11:51:25;;;;;;;7.17;6.30;;;12.90;59.50;;;;;;5011713;28;20457;-41
2020/12/21 11:53:51;;;;;;;7.17;5.60;;;12.80;59.90;;;;;;5011868;28;20437;-41
2020/12/21 11:56:18;;;;;;;8.63;6.17;;;12.90;59.40;;;;;;5011691;28;20858;-42
2020/12/21 11:58:44;;;;;;;6.07;5.47;;;13.00;59.10;;;;;;5012037;28;20849;-41
2020/12/21 12:01:10;;;;;;;7.30;5.80;;;12.60;59.20;;;;;;5011676;28;20425;-41
2020/12/21 12:03:35;;;;;;;6.57;5.97;;;12.70;59.60;;;;;;5011740;28;20265;-41
2020/12/21 12:06:02;;;;;;;6.10;5.10;;;12.80;59.60;;;;;;5012014;28;20463;-41
2020/12/21 12:08:27;;;;;;;7.23;6.53;;;12.90;59.70;;;;;;5011438;28;20190;-41
2020/12/21 12:10:53;;;;;;;6.00;5.30;;;12.90;59.50;;;;;;5011920;28;20427;-41
2020/12/21 12:13:18;;;;;;;7.30;6.60;;;12.90;59.60;;;;;;5009283;28;20201;-41
2020/12/21 12:15:44;;;;;;;9.27;7.70;;;12.70;60.20;;;;;;5011922;28;20269;-41
2020/12/21 12:18:09;;;;;;;9.40;7.80;;;12.30;60.70;;;;;;5010924;28;20204;-41
2020/12/21 12:20:35;;;;;;;6.73;5.47;;;12.00;61.90;;;;;;5011826;28;20391;-41
2020/12/21 12:23:01;;;;;;;8.00;6.20;;;12.20;62.20;;;;;;5011260;28;20202;-41
2020/12/21 12:25:27;;;;;;;7.67;5.50;;;12.30;61.30;;;;;;5011744;28;20658;-41
2020/12/21 12:27:52;;;;;;;8.23;7.20;;;12.40;60.80;;;;;;5011044;28;20186;-41
2020/12/21 12:30:18;;;;;;;8.90;7.20;;;12.50;60.10;;;;;;5011528;28;20244;-41
2020/12/21 12:32:43;;;;;;;8.00;5.03;;;12.50;60.50;;;;;;5010618;28;20205;-41
2020/12/21 12:35:09;;;;;;;9.20;6.77;;;12.50;59.60;;;;;;5011938;28;20277;-41